Time;durP1;ratioP1;P1;durP2;ratioP2;P2;SDS_P1;SDS_P2;PMS_P1;PMS_P2;Temp;Humidity;BMP_temperature;BMP_pressure;BME280_temperature;BME280_humidity;BME280_pressure;Samples;Min_cycle;Max_cycle;Signal;HPM_P1;HPM_P2
2022/02/10 10:12:00;;;;;;;24.75;13.38;;;;;;;;;;6172176;23;20432;-88
2022/02/10 10:14:32;;;;;;;25.42;13.00;;;;;;;;;;6185929;23;20087;-83
2022/02/10 10:20:37;;;;;;;27.73;15.57;;;;;;;;;;6190456;23;20328;-84
2022/02/10 10:53:49;;;;;;;19.40;11.98;;;;;;;;;;6185939;23;20136;-83
2022/02/10 10:56:25;;;;;;;24.40;15.32;;;;;;;;;;6185861;23;20072;-83
2022/02/10 11:25:27;;;;;;;13.07;10.05;;;;;;;;;;6187867;23;20058;-84
2022/02/10 11:38:12;;;;;;;14.23;10.20;;;;;;;;;;6187849;23;20051;-83
2022/02/10 11:41:04;;;;;;;16.20;11.32;;;;;;;;;;6188021;23;20055;-83
2022/02/10 11:46:47;;;;;;;16.83;11.20;;;;;;;;;;6192367;23;20015;-84
2022/02/10 12:37:50;;;;;;;25.85;17.35;;;;;;;;;;6195234;23;20308;-85
2022/02/10 17:14:09;;;;;;;39.85;24.33;;;;;;;;;;6157802;23;20080;-85
2022/02/10 17:19:26;;;;;;;33.75;22.70;;;;;;;;;;6158295;23;20084;-88
2022/02/10 17:54:07;;;;;;;43.30;28.33;;;;;;;;;;6161134;23;20377;-87
2022/02/10 17:56:34;;;;;;;47.25;31.63;;;;;;;;;;6156273;23;20006;-88
2022/02/10 17:59:01;;;;;;;47.90;31.40;;;;;;;;;;6156566;23;20010;-87
2022/02/10 18:01:28;;;;;;;45.53;31.65;;;;;;;;;;6155300;23;20414;-88
2022/02/10 18:03:54;;;;;;;42.42;27.52;;;;;;;;;;6154881;23;20457;-88
2022/02/10 18:06:30;;;;;;;39.10;26.17;;;;;;;;;;6155281;23;20100;-88
2022/02/10 18:14:16;;;;;;;39.03;24.98;;;;;;;;;;6159827;23;20021;-88
2022/02/10 18:16:48;;;;;;;47.78;26.15;;;;;;;;;;6156264;23;20010;-92
2022/02/10 18:19:21;;;;;;;42.55;28.80;;;;;;;;;;6156517;23;20013;-94
2022/02/10 18:27:15;;;;;;;38.88;25.40;;;;;;;;;;6167704;23;20010;-93
2022/02/10 19:10:18;;;;;;;31.00;20.98;;;;;;;;;;6166468;23;20012;-90
2022/02/10 19:12:52;;;;;;;31.60;21.65;;;;;;;;;;6131907;23;20014;-93
2022/02/10 19:15:24;;;;;;;37.33;22.80;;;;;;;;;;6157544;23;20008;-94
2022/02/10 19:17:52;;;;;;;37.90;24.10;;;;;;;;;;6131136;23;20448;-92
2022/02/10 19:21:03;;;;;;;37.22;26.17;;;;;;;;;;6160119;23;20098;-89
2022/02/10 19:23:29;;;;;;;36.85;22.35;;;;;;;;;;6156049;23;20006;-95
2022/02/10 19:25:54;;;;;;;33.92;23.05;;;;;;;;;;6155894;23;20010;-96
2022/02/10 19:28:20;;;;;;;34.85;22.33;;;;;;;;;;6130696;23;20421;-94
2022/02/10 20:21:03;;;;;;;37.53;21.48;;;;;;;;;;6070045;23;20477;-96
2022/02/10 20:23:34;;;;;;;36.20;23.52;;;;;;;;;;6073073;23;20090;-96
2022/02/10 20:26:00;;;;;;;;;;;;;;;;;;6048313;23;20418;-96
2022/02/10 20:28:27;;;;;;;33.58;21.77;;;;;;;;;;6048817;23;20318;-96
2022/02/10 20:30:52;;;;;;;39.47;23.55;;;;;;;;;;6070595;23;20003;-96
2022/02/10 20:33:21;;;;;;;33.88;24.23;;;;;;;;;;6071290;23;20081;-94
2022/02/10 20:35:50;;;;;;;35.17;24.75;;;;;;;;;;6070697;23;20403;-96
2022/02/10 20:38:19;;;;;;;42.38;27.83;;;;;;;;;;6044727;23;20006;-93
2022/02/10 20:40:46;;;;;;;34.33;23.90;;;;;;;;;;6045310;23;20011;-96
2022/02/10 20:43:12;;;;;;;31.88;23.00;;;;;;;;;;6069783;23;20011;-94
2022/02/10 20:45:38;;;;;;;36.28;23.98;;;;;;;;;;6071181;23;20481;-95
2022/02/10 20:48:05;;;;;;;38.22;24.33;;;;;;;;;;6069059;23;20006;-95
2022/02/10 20:50:31;;;;;;;36.33;23.73;;;;;;;;;;6045610;23;20007;-94
2022/02/10 20:52:57;;;;;;;34.67;24.27;;;;;;;;;;6045045;23;20011;-93
2022/02/10 20:55:24;;;;;;;40.13;23.45;;;;;;;;;;6070852;23;20478;-94
2022/02/10 20:57:49;;;;;;;35.22;23.67;;;;;;;;;;6046185;23;20002;-94
2022/02/10 21:00:19;;;;;;;39.28;25.00;;;;;;;;;;6046461;23;20434;-92
2022/02/10 21:02:47;;;;;;;44.03;24.15;;;;;;;;;;6046951;23;20078;-92
2022/02/10 21:07:59;;;;;;;42.35;27.73;;;;;;;;;;6075622;23;20007;-92
2022/02/10 21:10:27;;;;;;;44.60;28.92;;;;;;;;;;6070415;23;20086;-90
2022/02/10 21:12:52;;;;;;;44.33;29.08;;;;;;;;;;6044849;23;20013;-93
2022/02/10 21:15:25;;;;;;;47.10;30.15;;;;;;;;;;6068796;23;20006;-89
2022/02/10 21:17:56;;;;;;;44.13;27.00;;;;;;;;;;6068975;23;20003;-90
2022/02/10 21:20:22;;;;;;;42.33;28.60;;;;;;;;;;6068332;23;20106;-94
2022/02/10 21:22:57;;;;;;;42.05;25.92;;;;;;;;;;6068363;23;20018;-91
2022/02/10 21:25:24;;;;;;;45.10;26.65;;;;;;;;;;6069885;23;20418;-89
2022/02/10 21:27:52;;;;;;;43.30;27.83;;;;;;;;;;6044444;23;20011;-88
2022/02/10 21:30:20;;;;;;;42.75;28.75;;;;;;;;;;6069948;23;19999;-89
2022/02/10 21:32:51;;;;;;;40.90;26.77;;;;;;;;;;6069342;23;20082;-89
2022/02/10 21:38:00;;;;;;;42.70;26.65;;;;;;;;;;6073791;23;20088;-90
2022/02/10 21:56:28;;;;;;;38.13;26.17;;;;;;;;;;6079769;23;20045;-91
2022/02/10 22:20:17;;;;;;;38.83;26.75;;;;;;;;;;6077815;23;20019;-89
2022/02/10 22:23:03;;;;;;;37.95;26.85;;;;;;;;;;6044344;23;20030;-90
2022/02/10 22:25:29;;;;;;;40.17;26.73;;;;;;;;;;6069702;23;20013;-87
2022/02/10 22:27:59;;;;;;;39.35;25.13;;;;;;;;;;6068679;23;20093;-93
2022/02/10 22:30:43;;;;;;;;;;;;;;;;;;6069396;23;20011;-93
